Time;durP1;ratioP1;P1;durP2;ratioP2;P2;SDS_P1;SDS_P2;PMS_P1;PMS_P2;Temp;Humidity;BMP_temperature;BMP_pressure;BME280_temperature;BME280_humidity;BME280_pressure;Samples;Min_cycle;Max_cycle;Signal;HPM_P1;HPM_P2
2022/11/27 00:00:45;;;;;;;39.37;20.57;;;10.10;99.90;;;;;;5073134;28;20768;-51
2022/11/27 00:03:12;;;;;;;34.93;19.40;;;9.50;99.90;;;;;;5073450;28;20536;-49
2022/11/27 00:05:38;;;;;;;40.30;20.40;;;10.10;99.90;;;;;;5073436;28;20488;-51
2022/11/27 00:08:05;;;;;;;39.17;20.07;;;10.10;99.90;;;;;;5073434;28;20426;-50
2022/11/27 00:10:33;;;;;;;34.10;20.73;;;10.30;99.90;;;;;;5072670;28;20945;-50
2022/11/27 00:13:00;;;;;;;45.50;20.93;;;10.00;99.90;;;;;;5073221;28;20445;-51
2022/11/27 00:15:26;;;;;;;36.77;19.67;;;10.00;99.90;;;;;;5073337;28;20434;-51
2022/11/27 00:17:53;;;;;;;32.87;19.63;;;10.20;99.90;;;;;;5071681;28;20582;-50
2022/11/27 00:20:19;;;;;;;44.10;21.10;;;10.10;99.90;;;;;;5072599;28;20442;-51
2022/11/27 00:22:46;;;;;;;42.90;20.20;;;10.40;99.90;;;;;;5072957;28;20456;-51
2022/11/27 00:25:13;;;;;;;40.97;20.20;;;10.00;99.90;;;;;;5072850;28;20473;-51
2022/11/27 00:27:41;;;;;;;39.33;18.77;;;9.50;99.90;;;;;;5055189;28;20416;-51
2022/11/27 00:30:08;;;;;;;40.67;19.00;;;9.90;99.90;;;;;;5072126;28;20440;-51
2022/11/27 00:32:35;;;;;;;41.20;19.80;;;9.90;99.90;;;;;;5072872;28;20839;-51
2022/11/27 00:35:02;;;;;;;45.40;19.40;;;10.10;99.90;;;;;;5072861;28;20433;-52
2022/11/27 00:37:28;;;;;;;36.40;19.77;;;9.70;99.90;;;;;;5072876;28;20445;-51
2022/11/27 00:39:55;;;;;;;35.90;17.80;;;10.40;99.90;;;;;;5072189;28;20841;-52
2022/11/27 00:42:21;;;;;;;30.17;19.60;;;9.40;99.90;;;;;;5072603;28;20448;-51
2022/11/27 00:44:49;;;;;;;31.23;17.53;;;10.20;99.90;;;;;;5072616;28;20491;-50
2022/11/27 00:47:16;;;;;;;44.33;20.23;;;9.90;99.90;;;;;;5072417;28;20926;-50
2022/11/27 00:49:43;;;;;;;33.47;18.10;;;9.90;99.90;;;;;;5071640;28;20415;-51
2022/11/27 00:52:09;;;;;;;35.57;19.00;;;10.10;99.90;;;;;;5072569;28;20945;-50
2022/11/27 00:54:36;;;;;;;32.73;17.63;;;10.40;99.90;;;;;;5072681;28;20461;-50
2022/11/27 00:57:03;;;;;;;37.27;17.97;;;10.30;99.90;;;;;;5072594;28;20505;-52
2022/11/27 00:59:30;;;;;;;38.03;18.23;;;9.80;99.90;;;;;;5071907;28;20435;-50
2022/11/27 01:01:58;;;;;;;29.03;15.40;;;10.10;99.90;;;;;;5072357;28;20779;-51
2022/11/27 01:04:24;;;;;;;27.07;15.50;;;10.00;99.90;;;;;;5072163;28;20448;-51
2022/11/27 01:06:51;;;;;;;24.70;13.93;;;10.10;99.90;;;;;;5072412;28;20529;-51
2022/11/27 01:09:18;;;;;;;32.10;13.90;;;9.50;99.90;;;;;;5071554;28;20853;-51
2022/11/27 01:11:44;;;;;;;25.03;13.70;;;10.20;99.90;;;;;;5072215;28;20432;-51
2022/11/27 01:14:13;;;;;;;29.53;14.80;;;10.50;99.90;;;;;;5072213;28;20487;-51
2022/11/27 01:16:40;;;;;;;23.33;13.87;;;10.20;99.90;;;;;;5072090;28;20437;-51
2022/11/27 01:19:10;;;;;;;29.40;14.93;;;10.40;99.90;;;;;;5053425;28;20868;-51
2022/11/27 01:21:37;;;;;;;22.67;13.23;;;10.50;99.90;;;;;;5072054;28;20457;-51
2022/11/27 01:24:05;;;;;;;31.37;14.97;;;10.00;99.90;;;;;;5071952;28;20430;-51
2022/11/27 01:26:33;;;;;;;30.47;15.17;;;10.00;99.90;;;;;;5072084;28;20480;-50
2022/11/27 01:28:59;;;;;;;28.23;13.60;;;10.50;99.90;;;;;;5071292;28;20429;-51
2022/11/27 01:31:28;;;;;;;22.40;14.93;;;9.80;99.90;;;;;;5071595;28;20449;-51
2022/11/27 01:33:59;;;;;;;28.43;15.77;;;10.00;99.90;;;;;;5071713;28;20429;-50
2022/11/27 01:36:28;;;;;;;31.33;16.63;;;10.50;99.90;;;;;;5071688;28;20433;-50
2022/11/27 01:38:56;;;;;;;27.33;13.13;;;10.20;99.90;;;;;;5071175;28;20430;-50
2022/11/27 01:41:26;;;;;;;20.40;14.47;;;10.20;99.90;;;;;;5071716;28;20997;-51
2022/11/27 01:43:54;;;;;;;26.10;14.63;;;10.30;99.90;;;;;;5071993;28;20401;-50
2022/11/27 01:46:31;;;;;;;28.03;14.37;;;9.90;99.90;;;;;;5071823;28;20462;-50
2022/11/27 01:49:05;;;;;;;25.23;13.70;;;10.00;99.90;;;;;;5071033;28;20465;-51
2022/11/27 01:51:33;;;;;;;26.33;14.17;;;10.40;99.90;;;;;;5071784;28;20458;-51
2022/11/27 01:53:59;;;;;;;22.70;13.90;;;10.10;99.90;;;;;;5071704;28;20442;-50
2022/11/27 01:56:27;;;;;;;37.20;14.53;;;10.40;99.90;;;;;;5071772;28;20777;-50
2022/11/27 01:58:55;;;;;;;20.27;13.03;;;9.80;99.90;;;;;;5070929;28;20405;-50
2022/11/27 02:01:23;;;;;;;27.83;13.50;;;10.10;99.90;;;;;;5071515;28;20469;-51
2022/11/27 02:03:50;;;;;;;23.37;14.70;;;10.00;99.90;;;;;;5071637;28;20397;-51
2022/11/27 02:06:16;;;;;;;29.93;14.37;;;10.50;99.90;;;;;;5053660;28;20470;-51
2022/11/27 02:08:44;;;;;;;21.67;14.10;;;10.00;99.90;;;;;;5071381;28;20746;-50
2022/11/27 02:11:14;;;;;;;31.97;17.83;;;10.00;99.90;;;;;;5071911;28;20429;-51
2022/11/27 02:13:47;;;;;;;37.43;13.93;;;10.20;99.90;;;;;;5072297;28;20433;-51
2022/11/27 02:16:19;;;;;;;26.47;15.37;;;10.00;99.90;;;;;;5071663;28;20419;-51
2022/11/27 02:18:56;;;;;;;23.50;12.93;;;9.50;99.90;;;;;;5071607;28;20426;-51
2022/11/27 02:21:34;;;;;;;27.27;15.30;;;9.90;99.90;;;;;;5071555;28;20988;-52
2022/11/27 02:24:37;;;;;;;23.17;13.37;;;10.30;99.90;;;;;;5071487;28;20429;-51
2022/11/27 02:27:21;;;;;;;25.10;13.83;;;10.00;99.90;;;;;;5071583;28;20840;-52
2022/11/27 02:29:55;;;;;;;28.27;14.20;;;10.00;99.90;;;;;;5070732;28;20425;-50
2022/11/27 02:32:26;;;;;;;29.03;14.20;;;9.60;99.90;;;;;;5071245;28;20984;-51
2022/11/27 02:34:57;;;;;;;25.20;14.40;;;9.80;99.90;;;;;;5071404;28;20434;-51
2022/11/27 02:37:31;;;;;;;24.77;13.70;;;10.00;99.90;;;;;;5071661;28;20409;-50
2022/11/27 02:40:03;;;;;;;35.17;16.37;;;9.80;99.90;;;;;;5052840;28;20453;-51
2022/11/27 02:42:35;;;;;;;28.87;14.90;;;9.60;99.90;;;;;;5075397;28;20440;-51
2022/11/27 02:45:10;;;;;;;24.37;14.30;;;9.60;99.90;;;;;;5075295;28;20842;-52
2022/11/27 02:47:39;;;;;;;28.80;14.87;;;9.90;99.90;;;;;;5075290;28;20415;-51
2022/11/27 02:50:08;;;;;;;24.80;14.30;;;9.70;99.90;;;;;;5074385;28;20524;-51
2022/11/27 02:52:36;;;;;;;32.80;16.37;;;9.50;99.90;;;;;;5074924;28;20416;-51
2022/11/27 02:55:08;;;;;;;27.67;17.43;;;9.60;99.90;;;;;;5074902;28;20426;-51
2022/11/27 02:57:37;;;;;;;21.50;14.40;;;9.40;99.90;;;;;;5074910;28;20408;-51
2022/11/27 03:00:06;;;;;;;30.13;15.43;;;9.30;99.90;;;;;;5073528;28;20490;-51
2022/11/27 03:02:39;;;;;;;26.10;14.70;;;9.60;99.90;;;;;;5074435;28;20456;-51
2022/11/27 03:05:10;;;;;;;24.80;13.57;;;9.50;99.90;;;;;;5056871;28;20527;-51
2022/11/27 03:07:42;;;;;;;22.13;14.20;;;9.70;99.90;;;;;;5074755;28;20424;-51
2022/11/27 03:10:12;;;;;;;27.70;15.40;;;9.60;99.90;;;;;;5074022;28;20945;-51
2022/11/27 03:12:39;;;;;;;24.00;14.30;;;9.70;99.90;;;;;;5074599;28;20518;-51
2022/11/27 03:15:08;;;;;;;18.43;12.30;;;9.00;99.90;;;;;;5074627;28;20442;-51
2022/11/27 03:17:51;;;;;;;24.07;13.57;;;9.50;99.90;;;;;;5074323;28;20914;-51
2022/11/27 03:20:22;;;;;;;26.10;14.30;;;9.60;99.90;;;;;;5073828;28;20433;-51
2022/11/27 03:22:49;;;;;;;24.30;14.67;;;9.80;99.90;;;;;;5074264;28;20446;-51
2022/11/27 03:25:16;;;;;;;19.47;12.50;;;9.60;99.90;;;;;;5074377;28;20484;-50
2022/11/27 03:27:48;;;;;;;28.90;14.70;;;9.90;99.90;;;;;;5074451;28;20468;-51
2022/11/27 03:30:16;;;;;;;25.77;13.40;;;9.50;99.90;;;;;;5073723;28;20436;-50
2022/11/27 03:32:43;;;;;;;23.70;14.30;;;9.40;99.90;;;;;;5073988;28;20987;-51
2022/11/27 03:35:12;;;;;;;27.37;13.87;;;9.60;99.90;;;;;;5074316;28;20794;-51
2022/11/27 03:37:39;;;;;;;26.43;14.03;;;9.50;99.90;;;;;;5074486;28;20441;-51
2022/11/27 03:40:08;;;;;;;26.40;14.07;;;9.50;99.90;;;;;;5073508;28;20922;-52
2022/11/27 03:42:43;;;;;;;16.07;12.57;;;9.40;99.90;;;;;;5073983;28;20457;-51
2022/11/27 03:45:24;;;;;;;26.60;14.80;;;9.40;99.90;;;;;;5074077;28;20921;-51
2022/11/27 03:48:01;;;;;;;30.50;16.20;;;9.70;99.90;;;;;;5073966;28;20433;-51
2022/11/27 03:50:34;;;;;;;26.33;13.60;;;9.60;99.90;;;;;;5073398;28;20441;-51
2022/11/27 03:53:10;;;;;;;26.50;14.60;;;9.60;99.90;;;;;;5073828;28;20534;-51
2022/11/27 03:55:45;;;;;;;22.50;13.37;;;9.90;99.90;;;;;;5073860;28;20892;-51
2022/11/27 03:58:19;;;;;;;24.17;13.10;;;9.50;99.90;;;;;;5073712;28;20443;-50
2022/11/27 04:00:49;;;;;;;26.30;13.63;;;8.70;99.90;;;;;;5073259;28;20409;-51
2022/11/27 04:03:23;;;;;;;28.10;13.40;;;9.50;99.90;;;;;;5073504;28;20797;-51
2022/11/27 04:05:50;;;;;;;24.27;13.60;;;9.60;99.90;;;;;;5073539;28;21011;-51
2022/11/27 04:08:16;;;;;;;21.30;13.80;;;9.30;99.90;;;;;;5073578;28;20801;-50
2022/11/27 04:10:43;;;;;;;25.60;14.70;;;9.60;99.90;;;;;;5072802;28;20429;-50
2022/11/27 04:13:10;;;;;;;25.67;14.13;;;9.60;99.90;;;;;;5073485;28;20431;-50
2022/11/27 04:15:36;;;;;;;19.40;12.90;;;9.20;99.90;;;;;;5073483;28;20426;-49
2022/11/27 04:18:04;;;;;;;23.77;13.20;;;9.40;99.90;;;;;;5073461;28;20430;-49
2022/11/27 04:20:31;;;;;;;25.00;13.03;;;9.70;99.90;;;;;;5072342;28;20769;-50
2022/11/27 04:22:57;;;;;;;24.13;13.40;;;9.20;99.90;;;;;;5073145;28;20454;-50
2022/11/27 04:25:24;;;;;;;21.53;13.30;;;9.50;99.90;;;;;;5073089;28;20438;-49
2022/11/27 04:27:51;;;;;;;22.13;12.93;;;9.20;99.90;;;;;;5073236;28;20897;-50
2022/11/27 04:30:18;;;;;;;16.83;12.43;;;9.20;99.90;;;;;;5072428;28;20466;-50
2022/11/27 04:32:44;;;;;;;22.70;13.80;;;9.10;99.90;;;;;;5073089;28;20454;-50
2022/11/27 04:35:12;;;;;;;24.73;13.60;;;8.90;99.90;;;;;;5055014;28;20442;-49
2022/11/27 04:37:39;;;;;;;24.00;14.83;;;9.50;99.90;;;;;;5072989;28;20429;-50
2022/11/27 04:40:07;;;;;;;24.77;15.40;;;9.20;99.90;;;;;;5072200;28;20409;-50
2022/11/27 04:42:33;;;;;;;22.27;14.20;;;9.20;99.90;;;;;;5073178;28;20970;-49
2022/11/27 04:45:00;;;;;;;19.97;15.40;;;9.40;99.90;;;;;;5072764;28;20552;-48
2022/11/27 04:47:27;;;;;;;22.13;15.80;;;8.80;99.90;;;;;;5072656;28;20478;-48
2022/11/27 04:49:53;;;;;;;23.03;15.37;;;8.60;99.90;;;;;;5071990;28;20407;-48
2022/11/27 04:52:21;;;;;;;21.20;14.70;;;9.60;99.90;;;;;;5072383;28;20460;-50
2022/11/27 04:54:48;;;;;;;23.73;14.83;;;8.80;99.90;;;;;;5072744;28;20429;-49
2022/11/27 04:57:14;;;;;;;21.87;14.53;;;9.10;99.90;;;;;;5073085;28;20426;-48
2022/11/27 04:59:41;;;;;;;23.17;14.90;;;9.30;99.90;;;;;;5054530;28;20434;-49
2022/11/27 05:02:07;;;;;;;25.47;15.63;;;8.90;99.90;;;;;;5072719;28;20868;-49
2022/11/27 05:04:34;;;;;;;20.43;14.87;;;8.70;99.90;;;;;;5072815;28;20404;-50
2022/11/27 05:07:00;;;;;;;20.00;14.20;;;8.90;99.90;;;;;;5073058;28;20475;-49
2022/11/27 05:09:28;;;;;;;20.77;14.37;;;8.80;99.90;;;;;;5072479;28;20760;-48
2022/11/27 05:11:55;;;;;;;22.93;13.90;;;8.90;99.90;;;;;;5054437;28;20472;-48
2022/11/27 05:14:27;;;;;;;22.43;14.40;;;8.80;99.90;;;;;;5072358;28;20404;-50
2022/11/27 05:16:55;;;;;;;25.63;14.30;;;9.00;99.90;;;;;;5072371;28;20923;-49
2022/11/27 05:19:24;;;;;;;23.47;15.10;;;8.20;99.90;;;;;;5053547;28;20792;-49
2022/11/27 05:21:51;;;;;;;26.80;14.23;;;8.30;99.90;;;;;;5072128;28;20454;-49
2022/11/27 05:24:21;;;;;;;23.50;15.20;;;8.40;99.90;;;;;;5072218;28;20415;-49
2022/11/27 05:26:49;;;;;;;23.40;14.67;;;8.40;99.90;;;;;;5054502;28;20476;-49
2022/11/27 05:29:16;;;;;;;22.93;15.60;;;7.80;99.90;;;;;;5071459;28;20429;-49
2022/11/27 05:31:43;;;;;;;25.63;15.47;;;8.40;99.90;;;;;;5071973;28;20457;-50
2022/11/27 05:34:10;;;;;;;21.70;14.47;;;8.20;99.90;;;;;;5072151;28;20404;-49
2022/11/27 05:36:37;;;;;;;24.83;15.57;;;8.20;99.90;;;;;;5072072;28;20412;-51
2022/11/27 05:39:06;;;;;;;26.23;16.13;;;8.50;99.90;;;;;;5071324;28;20432;-50
2022/11/27 05:41:33;;;;;;;25.87;15.60;;;8.10;99.90;;;;;;5071884;28;20467;-50
2022/11/27 05:44:01;;;;;;;28.27;15.57;;;8.10;99.90;;;;;;5072014;28;20433;-49
2022/11/27 05:46:27;;;;;;;28.30;16.50;;;8.10;99.90;;;;;;5071800;28;20448;-48
2022/11/27 05:48:54;;;;;;;21.53;14.73;;;7.90;99.90;;;;;;5053148;28;20494;-48
2022/11/27 05:51:21;;;;;;;23.00;13.87;;;8.50;99.90;;;;;;5071818;28;20476;-49
2022/11/27 05:53:47;;;;;;;18.60;13.10;;;7.90;99.90;;;;;;5071900;28;20405;-50
2022/11/27 05:56:16;;;;;;;24.03;16.80;;;7.90;99.90;;;;;;5072243;28;20436;-49
2022/11/27 05:58:45;;;;;;;25.17;14.80;;;7.90;99.90;;;;;;5071051;28;20413;-49
2022/11/27 06:01:15;;;;;;;20.67;14.57;;;7.80;99.90;;;;;;5071632;28;20943;-49
2022/11/27 06:03:41;;;;;;;25.27;14.93;;;7.90;99.90;;;;;;5071596;28;20412;-49
2022/11/27 06:06:10;;;;;;;23.97;15.17;;;7.30;99.90;;;;;;5071735;28;20447;-49
2022/11/27 06:08:37;;;;;;;24.27;14.60;;;7.80;99.90;;;;;;5070971;28;20838;-49
2022/11/27 06:11:06;;;;;;;22.83;14.67;;;7.60;99.90;;;;;;5071452;28;20893;-49
2022/11/27 06:13:33;;;;;;;27.33;14.97;;;7.60;99.90;;;;;;5071648;28;20440;-49
2022/11/27 06:16:04;;;;;;;23.20;15.27;;;7.80;99.90;;;;;;5073398;28;20446;-50
2022/11/27 06:18:32;;;;;;;17.73;14.17;;;7.80;99.90;;;;;;5074824;28;20809;-49
2022/11/27 06:20:59;;;;;;;31.87;15.90;;;7.50;99.90;;;;;;5075588;28;20430;-48
2022/11/27 06:23:25;;;;;;;24.77;15.63;;;7.50;99.90;;;;;;5075613;28;20730;-49
2022/11/27 06:25:52;;;;;;;28.63;17.07;;;7.90;99.90;;;;;;5057380;28;20455;-50
2022/11/27 06:28:19;;;;;;;23.03;15.80;;;7.70;99.90;;;;;;5075487;28;20411;-49
2022/11/27 06:30:45;;;;;;;23.73;14.90;;;7.80;99.90;;;;;;5074836;28;20888;-48
2022/11/27 06:33:12;;;;;;;29.20;16.57;;;7.70;99.90;;;;;;5075407;28;20419;-49
2022/11/27 06:35:39;;;;;;;27.70;17.50;;;7.30;99.90;;;;;;5075423;28;20412;-49
2022/11/27 06:38:06;;;;;;;29.30;17.00;;;7.50;99.90;;;;;;5075337;28;20433;-48
2022/11/27 06:40:33;;;;;;;27.20;17.57;;;7.90;99.90;;;;;;5074563;28;20437;-48
2022/11/27 06:42:59;;;;;;;26.63;18.10;;;7.40;99.90;;;;;;5074966;28;20446;-48
2022/11/27 06:45:26;;;;;;;23.63;16.50;;;7.40;99.90;;;;;;5075141;28;20440;-48
2022/11/27 06:47:52;;;;;;;23.87;16.97;;;7.40;99.90;;;;;;5074885;28;20483;-49
2022/11/27 06:50:19;;;;;;;28.83;17.30;;;7.20;99.90;;;;;;5074313;28;20926;-48
2022/11/27 06:52:47;;;;;;;29.27;16.93;;;6.70;99.90;;;;;;5056984;28;20562;-48
2022/11/27 06:55:13;;;;;;;25.10;16.83;;;7.30;99.90;;;;;;5074784;28;20400;-48
2022/11/27 06:57:40;;;;;;;25.37;16.90;;;7.50;99.90;;;;;;5074975;28;20410;-48
2022/11/27 07:00:08;;;;;;;31.07;16.40;;;7.00;99.90;;;;;;5074269;28;20427;-49
2022/11/27 07:02:34;;;;;;;26.60;16.67;;;7.20;99.90;;;;;;5074768;28;20456;-49
2022/11/27 07:05:01;;;;;;;22.73;15.80;;;7.40;99.90;;;;;;5074944;28;20929;-49
2022/11/27 07:07:28;;;;;;;28.37;15.67;;;7.30;99.90;;;;;;5074777;28;20469;-48
2022/11/27 07:09:55;;;;;;;24.50;16.27;;;7.20;99.90;;;;;;5074050;28;20410;-49
2022/11/27 07:12:22;;;;;;;25.80;15.50;;;7.80;99.90;;;;;;5074607;28;20460;-48
2022/11/27 07:14:49;;;;;;;22.50;15.60;;;7.30;99.90;;;;;;5074602;28;20498;-48
2022/11/27 07:17:15;;;;;;;25.97;16.47;;;7.30;99.90;;;;;;5074458;28;20435;-49
2022/11/27 07:19:42;;;;;;;23.73;15.23;;;7.20;99.90;;;;;;5073849;28;20434;-49
2022/11/27 07:22:08;;;;;;;25.40;16.10;;;7.20;99.90;;;;;;5074294;28;20811;-49
2022/11/27 07:24:35;;;;;;;21.93;16.33;;;7.40;99.90;;;;;;5074351;28;20426;-49
2022/11/27 07:27:03;;;;;;;18.80;14.87;;;7.20;99.90;;;;;;5073917;28;20491;-49
2022/11/27 07:29:30;;;;;;;27.37;16.90;;;7.00;99.90;;;;;;5073846;28;20432;-50
2022/11/27 07:31:56;;;;;;;28.67;16.17;;;7.40;99.90;;;;;;5074299;28;20990;-50
2022/11/27 07:34:23;;;;;;;19.80;14.97;;;7.20;99.90;;;;;;5074094;28;20787;-49
2022/11/27 07:36:49;;;;;;;23.83;16.13;;;7.30;99.90;;;;;;5073910;28;20452;-50
2022/11/27 07:39:17;;;;;;;30.63;15.97;;;7.40;99.90;;;;;;5073600;28;20436;-49
2022/11/27 07:41:43;;;;;;;24.30;15.90;;;7.10;99.90;;;;;;5074101;28;20529;-48
2022/11/27 07:44:11;;;;;;;28.43;17.73;;;7.20;99.90;;;;;;5074222;28;20421;-48
2022/11/27 07:46:38;;;;;;;22.77;14.93;;;7.20;99.90;;;;;;5074268;28;20508;-50
2022/11/27 07:49:04;;;;;;;23.73;17.27;;;7.50;99.90;;;;;;5074320;28;20437;-49
2022/11/27 07:51:31;;;;;;;25.23;15.70;;;7.50;99.90;;;;;;5074942;28;20461;-49
2022/11/27 07:53:59;;;;;;;28.13;15.63;;;7.10;99.90;;;;;;5075281;28;20424;-48
2022/11/27 07:56:26;;;;;;;25.13;15.60;;;7.70;99.90;;;;;;5075112;28;20415;-48
2022/11/27 07:58:53;;;;;;;23.53;15.47;;;7.40;99.90;;;;;;5073803;28;20437;-49
2022/11/27 08:01:21;;;;;;;25.30;14.63;;;7.30;99.90;;;;;;5074182;28;20570;-47
2022/11/27 08:03:47;;;;;;;22.07;16.10;;;7.10;99.90;;;;;;5073791;28;20407;-48
2022/11/27 08:06:16;;;;;;;24.07;14.77;;;7.30;99.90;;;;;;5073355;28;20438;-48
2022/11/27 08:08:43;;;;;;;24.90;16.93;;;6.70;99.90;;;;;;5072923;28;20436;-48
2022/11/27 08:11:19;;;;;;;24.07;14.90;;;7.00;99.90;;;;;;5073266;28;20437;-48
2022/11/27 08:13:46;;;;;;;22.80;14.90;;;7.30;99.90;;;;;;5073489;28;20408;-48
2022/11/27 08:16:13;;;;;;;21.53;14.60;;;7.40;99.90;;;;;;5073264;28;20413;-49
2022/11/27 08:18:41;;;;;;;20.20;15.23;;;7.60;99.90;;;;;;5072466;28;20439;-49
2022/11/27 08:21:08;;;;;;;24.57;17.20;;;7.70;99.90;;;;;;5073127;28;20476;-47
2022/11/27 08:23:34;;;;;;;23.17;14.90;;;7.80;99.90;;;;;;5055121;28;20531;-49
2022/11/27 08:26:05;;;;;;;27.70;15.70;;;7.00;99.90;;;;;;5073087;28;20437;-49
2022/11/27 08:28:31;;;;;;;21.77;18.17;;;7.40;99.90;;;;;;5071943;28;20479;-49
2022/11/27 08:30:59;;;;;;;23.20;17.00;;;7.20;99.90;;;;;;5072916;28;20412;-48
2022/11/27 08:33:26;;;;;;;29.03;16.07;;;7.40;99.90;;;;;;5072901;28;20429;-49
2022/11/27 08:35:54;;;;;;;26.10;16.23;;;7.20;99.90;;;;;;5072971;28;20433;-49
2022/11/27 08:38:21;;;;;;;20.70;16.40;;;7.40;99.90;;;;;;5071956;28;20475;-52
2022/11/27 08:40:54;;;;;;;24.67;15.00;;;7.10;99.90;;;;;;5054553;28;20424;-48
2022/11/27 08:43:21;;;;;;;27.23;17.13;;;7.10;99.90;;;;;;5072633;28;20432;-49
2022/11/27 08:45:47;;;;;;;23.63;16.40;;;7.30;99.90;;;;;;5072533;28;20437;-49
2022/11/27 08:48:14;;;;;;;22.23;16.83;;;7.10;99.90;;;;;;5072537;28;20800;-49
2022/11/27 08:50:41;;;;;;;31.23;16.80;;;7.60;99.90;;;;;;5072062;28;20414;-50
2022/11/27 08:53:09;;;;;;;27.37;16.50;;;7.30;99.90;;;;;;5072583;28;20432;-51
2022/11/27 08:55:35;;;;;;;22.40;16.13;;;7.40;99.90;;;;;;5072522;28;20947;-50
2022/11/27 08:58:02;;;;;;;21.23;15.80;;;7.40;99.90;;;;;;5072453;28;20407;-50
2022/11/27 09:00:29;;;;;;;20.53;15.10;;;7.50;99.90;;;;;;5071724;28;20443;-49
2022/11/27 09:02:56;;;;;;;19.03;14.47;;;7.40;99.90;;;;;;5072398;28;20440;-50
2022/11/27 09:05:23;;;;;;;24.20;16.73;;;7.20;99.90;;;;;;5072398;28;20454;-49
2022/11/27 09:07:50;;;;;;;19.83;15.23;;;7.50;99.90;;;;;;5072351;28;20531;-50
2022/11/27 09:10:19;;;;;;;24.47;16.40;;;7.40;99.90;;;;;;5071813;28;20499;-49
2022/11/27 09:12:45;;;;;;;23.50;15.60;;;8.10;99.90;;;;;;5072070;28;20435;-48
2022/11/27 09:15:13;;;;;;;25.40;15.93;;;7.10;99.90;;;;;;5072063;28;20440;-51
2022/11/27 09:17:39;;;;;;;22.93;16.67;;;7.70;99.90;;;;;;5071953;28;20411;-49
2022/11/27 09:20:07;;;;;;;22.17;14.87;;;7.60;99.90;;;;;;5071351;28;20408;-52
2022/11/27 09:22:34;;;;;;;19.33;14.30;;;7.70;99.90;;;;;;5053983;28;20564;-49
2022/11/27 09:25:01;;;;;;;18.47;14.60;;;7.20;99.90;;;;;;5072349;28;20833;-48
2022/11/27 09:27:29;;;;;;;18.87;14.50;;;7.50;99.90;;;;;;5071963;28;20475;-49
2022/11/27 09:29:56;;;;;;;18.20;14.70;;;7.50;99.90;;;;;;5071212;28;20407;-48
2022/11/27 09:32:22;;;;;;;23.57;15.80;;;7.00;99.90;;;;;;5071928;28;20426;-51
2022/11/27 09:34:51;;;;;;;17.30;13.73;;;7.90;99.90;;;;;;5072010;28;20422;-46
2022/11/27 09:37:18;;;;;;;20.90;15.03;;;7.60;99.90;;;;;;5071660;28;20814;-49
2022/11/27 09:39:44;;;;;;;20.77;14.00;;;7.60;99.90;;;;;;5053203;28;20448;-49
2022/11/27 09:42:18;;;;;;;20.57;14.00;;;7.30;99.90;;;;;;5071336;28;20476;-49
2022/11/27 09:44:53;;;;;;;19.20;13.67;;;7.10;99.90;;;;;;5071803;28;20435;-48
2022/11/27 09:47:28;;;;;;;23.63;14.47;;;7.80;99.90;;;;;;5071603;28;21052;-49
2022/11/27 09:49:58;;;;;;;20.37;12.80;;;7.80;99.90;;;;;;5070951;28;20777;-49
2022/11/27 09:52:39;;;;;;;18.87;13.40;;;7.60;99.90;;;;;;5071460;28;20968;-49
2022/11/27 09:55:14;;;;;;;21.07;13.43;;;7.30;99.90;;;;;;5071701;28;20431;-49
2022/11/27 09:57:41;;;;;;;19.17;12.43;;;7.90;99.90;;;;;;5071533;28;20460;-49
2022/11/27 10:00:16;;;;;;;16.53;12.70;;;7.60;99.90;;;;;;5071033;28;20842;-48
2022/11/27 10:02:43;;;;;;;16.10;11.80;;;7.70;99.90;;;;;;5071556;28;20453;-49
2022/11/27 10:05:17;;;;;;;15.70;12.10;;;7.60;99.90;;;;;;5071668;28;20438;-49
2022/11/27 10:08:17;;;;;;;21.10;12.67;;;8.00;99.90;;;;;;5071605;28;20473;-48
2022/11/27 10:10:57;;;;;;;18.67;12.90;;;7.90;99.90;;;;;;5023062;28;20950;-49
2022/11/27 10:13:40;;;;;;;21.50;15.43;;;7.70;99.90;;;;;;5071192;28;20797;-49
2022/11/27 10:16:17;;;;;;;18.87;14.50;;;7.80;99.90;;;;;;5071350;28;20439;-49
2022/11/27 10:18:49;;;;;;;14.73;13.03;;;7.30;99.90;;;;;;5070768;28;20926;-49
2022/11/27 10:21:22;;;;;;;18.23;13.20;;;8.10;99.90;;;;;;5071267;28;20451;-51
2022/11/27 10:23:56;;;;;;;21.33;13.90;;;7.90;99.90;;;;;;5071451;28;20417;-49
2022/11/27 10:26:29;;;;;;;20.50;14.60;;;8.30;99.90;;;;;;5071069;28;20408;-49
2022/11/27 10:29:03;;;;;;;18.63;13.13;;;7.90;99.90;;;;;;5070636;28;20900;-49
2022/11/27 10:31:37;;;;;;;19.17;12.57;;;7.80;99.90;;;;;;5071527;28;20948;-49
2022/11/27 10:34:07;;;;;;;20.03;14.17;;;7.80;99.90;;;;;;5071787;28;20989;-48
2022/11/27 10:36:38;;;;;;;15.67;11.80;;;8.20;99.90;;;;;;5071602;28;20499;-48
2022/11/27 10:39:12;;;;;;;20.47;13.00;;;8.10;99.90;;;;;;5052791;28;20913;-49
2022/11/27 10:41:45;;;;;;;20.03;13.30;;;8.10;99.90;;;;;;5071568;28;20468;-51
2022/11/27 10:44:25;;;;;;;21.27;13.17;;;8.20;99.90;;;;;;5070893;28;20413;-51
2022/11/27 10:46:57;;;;;;;18.67;13.60;;;8.10;99.90;;;;;;5071020;28;20425;-51
2022/11/27 10:49:24;;;;;;;24.30;12.20;;;8.10;99.90;;;;;;5070266;28;20477;-51
2022/11/27 10:51:50;;;;;;;16.47;12.77;;;8.00;99.90;;;;;;5070921;28;20469;-50
2022/11/27 10:54:23;;;;;;;17.23;11.80;;;8.00;99.90;;;;;;5070791;28;20517;-50
2022/11/27 10:57:08;;;;;;;17.73;12.07;;;7.90;99.90;;;;;;5070569;28;20430;-51
2022/11/27 10:59:39;;;;;;;15.83;11.90;;;7.40;99.90;;;;;;5051967;28;20420;-50
2022/11/27 11:02:26;;;;;;;18.20;11.37;;;8.00;99.90;;;;;;5072836;28;20442;-51
2022/11/27 11:04:52;;;;;;;19.37;12.00;;;8.20;99.90;;;;;;5074596;28;20433;-51
2022/11/27 11:07:25;;;;;;;14.23;12.10;;;8.10;99.90;;;;;;5074220;28;20404;-51
2022/11/27 11:09:52;;;;;;;16.30;11.60;;;8.00;99.90;;;;;;5073988;28;20430;-50
2022/11/27 11:12:21;;;;;;;24.30;12.43;;;7.70;99.90;;;;;;5074211;28;20432;-51
2022/11/27 11:14:51;;;;;;;13.50;10.90;;;8.40;99.90;;;;;;5073842;28;20408;-50
2022/11/27 11:17:25;;;;;;;17.20;12.37;;;8.20;99.90;;;;;;5074372;28;20436;-51
2022/11/27 11:19:52;;;;;;;22.90;13.30;;;8.30;99.90;;;;;;5073366;28;20423;-51
2022/11/27 11:22:19;;;;;;;15.77;11.93;;;8.50;99.90;;;;;;5074090;28;20493;-51
2022/11/27 11:24:47;;;;;;;19.10;11.37;;;8.10;99.90;;;;;;5074357;28;20431;-51
2022/11/27 11:27:16;;;;;;;19.57;12.83;;;8.20;99.90;;;;;;5073947;28;20412;-50
2022/11/27 11:29:47;;;;;;;16.30;11.57;;;8.60;99.90;;;;;;5072599;28;20481;-52
2022/11/27 11:32:16;;;;;;;23.50;13.67;;;8.90;99.90;;;;;;5074064;28;20440;-51
2022/11/27 11:34:46;;;;;;;21.37;12.57;;;8.20;99.90;;;;;;5073732;28;20450;-51
2022/11/27 11:37:22;;;;;;;15.07;12.13;;;8.40;99.90;;;;;;5073804;28;20503;-51
2022/11/27 11:39:56;;;;;;;15.07;11.87;;;8.40;99.90;;;;;;5072895;28;20784;-51
2022/11/27 11:42:24;;;;;;;17.87;12.30;;;8.70;99.90;;;;;;5073840;28;20462;-51
2022/11/27 11:44:53;;;;;;;20.73;12.67;;;8.80;99.90;;;;;;5073546;28;20727;-52
2022/11/27 11:47:23;;;;;;;12.27;11.07;;;9.00;99.90;;;;;;5073561;28;20936;-51
2022/11/27 11:49:53;;;;;;;17.70;12.10;;;8.60;99.90;;;;;;5072439;28;20550;-51
2022/11/27 11:52:32;;;;;;;18.40;11.90;;;9.10;99.90;;;;;;5073510;28;20453;-51
2022/11/27 11:55:05;;;;;;;15.37;11.40;;;8.60;99.90;;;;;;5073492;28;20407;-52
2022/11/27 11:57:57;;;;;;;14.17;11.50;;;8.80;99.90;;;;;;5073627;28;20972;-52
2022/11/27 12:00:26;;;;;;;19.53;11.73;;;9.10;99.90;;;;;;5072654;28;20408;-51
2022/11/27 12:03:32;;;;;;;16.30;11.30;;;8.90;99.90;;;;;;5073218;28;20443;-51
2022/11/27 12:06:15;;;;;;;19.73;10.90;;;8.60;99.90;;;;;;4991616;28;20436;-51
2022/11/27 12:08:55;;;;;;;15.90;11.60;;;8.90;99.90;;;;;;5049061;28;20877;-50
2022/11/27 12:11:29;;;;;;;15.23;11.87;;;8.90;99.90;;;;;;5072896;28;20445;-51
2022/11/27 12:14:05;;;;;;;14.83;10.67;;;9.00;99.90;;;;;;5071866;28;20432;-50
2022/11/27 12:16:40;;;;;;;16.13;10.90;;;8.80;99.90;;;;;;5055266;28;20448;-50
2022/11/27 12:19:27;;;;;;;15.00;11.47;;;9.10;99.90;;;;;;5072360;28;20412;-50
2022/11/27 12:22:06;;;;;;;16.33;10.97;;;8.90;99.90;;;;;;5072854;28;20460;-51
2022/11/27 12:24:43;;;;;;;16.00;11.00;;;8.60;99.90;;;;;;5072672;28;20415;-51
2022/11/27 12:27:21;;;;;;;15.70;10.93;;;8.60;99.90;;;;;;5072948;28;20924;-51
2022/11/27 12:30:02;;;;;;;19.90;11.00;;;8.80;99.90;;;;;;5072357;28;20458;-51
2022/11/27 12:33:03;;;;;;;10.93;9.83;;;8.80;99.90;;;;;;5072576;28;20431;-50
2022/11/27 12:35:32;;;;;;;13.10;10.50;;;8.60;99.90;;;;;;5072800;28;20524;-50
2022/11/27 12:38:16;;;;;;;15.60;10.07;;;8.40;99.90;;;;;;5072726;28;20405;-50
2022/11/27 12:41:16;;;;;;;13.40;11.00;;;8.70;99.90;;;;;;5071998;28;20429;-50
2022/11/27 12:43:46;;;;;;;18.97;12.87;;;8.50;99.90;;;;;;5025077;28;20439;-51
2022/11/27 12:46:18;;;;;;;14.17;10.77;;;8.30;99.90;;;;;;5072558;28;20404;-51
2022/11/27 12:48:49;;;;;;;17.50;11.10;;;8.70;99.90;;;;;;5071627;28;21074;-50